Multan Weather



Multan's Current Weather

Temprature 38o smoke

smoke

Rain: 0 %

Min Temprature38o
Max Temprature38o
Humidity50
Wind Speed4.1 m/h
Sun Rise05:40:09
Sun Set18:57:53
Current Time: 13-Aug-2020 18:32:17
Lat/Lon: 30.2, 71.48




Multan's Geo Location



Multan's Weather Forecast

Time Overall Temp Min Temp Max Temp Humidity Wind Speed Rain
13-Aug-2020 (Thu)
20:00:00 clear sky 39.240 39.240 40.540 39 6.79 m/h 0 %
23:00:00 clear sky 38.610 38.610 38.780 36 6.18 m/h 0 %
14-Aug-2020 (Fri)
02:00:00 clear sky 37.110 37.050 37.110 39 4.09 m/h 0 %
05:00:00 clear sky 35.510 35.490 35.510 43 3.42 m/h 0 %
08:00:00 few clouds 36.530 36.530 36.530 46 4.96 m/h 0 %
11:00:00 scattered clouds 40.730 40.730 40.730 32 3 m/h 0 %
14:00:00 scattered clouds 43.320 43.320 43.320 27 4.06 m/h 0 %
17:00:00 broken clouds 41.880 41.880 41.880 29 4.61 m/h 0 %
20:00:00 few clouds 39.300 39.300 39.300 34 4.03 m/h 0 %
23:00:00 clear sky 36.840 36.840 36.840 41 3.29 m/h 0 %
15-Aug-2020 (Sat)
02:00:00 clear sky 36.320 36.320 36.320 38 3.5 m/h 0 %
05:00:00 clear sky 35.280 35.280 35.280 42 3.97 m/h 0 %
08:00:00 few clouds 37.780 37.780 37.780 40 6.28 m/h 0 %
11:00:00 clear sky 43.520 43.520 43.520 27 5.99 m/h 0 %
14:00:00 scattered clouds 44.700 44.700 44.700 24 4.44 m/h 0 %
17:00:00 broken clouds 44.180 44.180 44.180 24 4.86 m/h 0 %
20:00:00 broken clouds 40.660 40.660 40.660 29 3.81 m/h 0 %
23:00:00 scattered clouds 38.090 38.090 38.090 34 4.39 m/h 0 %
16-Aug-2020 (Sun)
02:00:00 clear sky 37.280 37.280 37.280 37 5.19 m/h 0 %
05:00:00 clear sky 35.570 35.570 35.570 46 5.89 m/h 0 %
08:00:00 clear sky 37.820 37.820 37.820 39 6.5 m/h 0 %
11:00:00 clear sky 43.590 43.590 43.590 26 5.79 m/h 0 %
14:00:00 clear sky 46.250 46.250 46.250 20 4.09 m/h 0 %
17:00:00 scattered clouds 44.840 44.840 44.840 22 4.16 m/h 0 %
20:00:00 scattered clouds 41.100 41.100 41.100 27 4.97 m/h 0 %
23:00:00 few clouds 39.050 39.050 39.050 33 5.32 m/h 0 %
17-Aug-2020 (Mon)
02:00:00 clear sky 36.650 36.650 36.650 42 5.74 m/h 0 %
05:00:00 clear sky 34.480 34.480 34.480 52 5.59 m/h 0 %
08:00:00 overcast clouds 35.830 35.830 35.830 45 6.86 m/h 0 %
11:00:00 overcast clouds 40.940 40.940 40.940 33 6.81 m/h 0 %
14:00:00 overcast clouds 43.870 43.870 43.870 26 5.93 m/h 0 %
17:00:00 overcast clouds 43.750 43.750 43.750 25 4.46 m/h 0 %
20:00:00 overcast clouds 40.090 40.090 40.090 31 5.79 m/h 0 %
23:00:00 overcast clouds 36.370 36.370 36.370 41 7.94 m/h 0 %
18-Aug-2020 (Tue)
02:00:00 overcast clouds 34.480 34.480 34.480 45 6.86 m/h 0 %
05:00:00 broken clouds 33.740 33.740 33.740 49 6.25 m/h 0 %
08:00:00 few clouds 36.180 36.180 36.180 43 6.92 m/h 0 %
11:00:00 few clouds 42.380 42.380 42.380 29 6.84 m/h 0 %
14:00:00 clear sky 45.060 45.060 45.060 24 5.55 m/h 0 %
17:00:00 scattered clouds 43.100 43.100 43.100 27 6.21 m/h 0 %

Famous Cities (60)